• Join FlightAware (Why Join?)
  • Login
  • US Flag 
02:54PM EDT


 

Airport Tracker/Info


-or-


 

Live Flight TrackerFlight Track Log ✈ EGF3421 ✈ 23-Jun-2013 ✈ KDCA - KRDU

Flight Track Log - Related Links

Times and Time Zones

All times are in EDT time to prevent confusion due to time zone crossing. See the EGF3421 flight status page for this flight to view local times or setup timezone preferences in your user account.

Time Position Orientation Groundspeed Altitude Reporting Facility
EDT Latitude Longitude Course Direction KTS MPH feet Rate Location/Type
06:20PM 38.7833 -77.0333 218° Southwest 203 234 2,400  Level Potomac TRACON
06:21PM 38.6397 -77.2770 218° Southwest  Level FlightAware Approximate
06:21PM 38.7333 -77.0667 207° Southwest 260 299 5,000  Level Potomac TRACON
06:22PM 38.5621 -77.3546 218° Southwest  Level FlightAware Approximate
06:22PM 38.6833 -77.1333 226° Southwest 270 311 7,700  Level Potomac TRACON
06:23PM 38.4897 -77.4395 225° Southwest  Level FlightAware Approximate
06:23PM 38.6333 -77.2167 232° Southwest 274 315 10,300  Level Potomac TRACON
06:23PM 38.5931 -77.2678 225° Southwest 293 337 11,300 1,620 Climbing Washington Center
06:24PM 38.4203 -77.5287 225° Southwest  Level FlightAware Approximate
06:24PM 38.5442 -77.3464 232° Southwest 317 365 13,200  Level Washington Center
06:25PM 38.3381 -77.5953 218° Southwest  Level FlightAware Approximate
06:25PM 38.4864 -77.4350 230° Southwest 317 365 15,100  Level Washington Center
06:26PM 38.4267 -77.5236 229° Southwest 328 377 16,800 1,680 Climbing Washington Center
06:27PM 38.3586 -77.6067 224° Southwest 328 377 18,500 1,800 Climbing Washington Center
06:28PM 38.2803 -77.6733 214° Southwest 334 384 20,500 1,740 Climbing Washington Center
06:29PM 38.2019 -77.7400 214° Southwest 339 390 22,000 720 Climbing Washington Center
06:30PM 38.1172 -77.8114 214° Southwest 353 406 22,000  Level Washington Center
06:31PM 38.0197 -77.8903 213° Southwest 376 433 22,000  Level Washington Center
06:32PM 37.9264 -77.9717 215° Southwest 388 447 22,000  Level Washington Center
06:33PM 37.8311 -78.0500 213° Southwest 408 470 22,000  Level Washington Center
06:34PM 37.7375 -78.1311 214° Southwest 408 470 22,000  Level Washington Center
06:35PM 37.6483 -78.2094 215° Southwest 400 460 22,000  Level Washington Center
06:36PM 37.5569 -78.2847 213° Southwest 400 460 22,000  Level Washington Center
06:37PM 37.4633 -78.3653 214° Southwest 406 467 22,000  Level Washington Center
06:38PM 37.3697 -78.4431 213° Southwest 406 467 22,000  Level Washington Center
06:39PM 37.2739 -78.5203 213° Southwest 406 467 22,000  Level Washington Center
06:40PM 37.1847 -78.5925 213° Southwest 419 482 22,000  Level Washington Center
06:41PM 37.0886 -78.6747 214° Southwest 419 482 22,000  Level Washington Center
06:42PM 36.9906 -78.7564 214° Southwest 424 488 22,000  Level Washington Center
06:43PM 36.8811 -78.7961 196° South 418 481 22,000 -1,200 Level Washington Center
06:44PM 36.7633 -78.8275 192° South 421 484 19,700 -2,220 Descending Washington Center
06:45PM 36.6792 -78.8525 193° South 402 463 17,600 -2,880 Descending Washington Center
06:46PM 36.5592 -78.8917 195° South 388 447 14,100 -3,300 Descending Washington Center
06:47PM 36.5025 -78.9072 192° South 370 426 12,600 -2,280 Descending Washington Center
06:48PM 36.4206 -78.9294 192° South 328 377 10,800 -1,620 Descending Washington Center
06:48PM 36.3872 -78.9203 168° South 300 345 10,300 -1,440 Descending Washington Center
06:49PM 36.3139 -78.8606 147° Southeast 282 325 8,600 -1,200 Descending Washington Center
06:50PM 36.2631 -78.8119 142° Southeast 271 312 8,000 -480 Descending Washington Center
06:51PM 36.2325 -78.7850 145° Southeast 231 266 7,900 -720 Descending Washington Center
06:51PM 36.2078 -78.7661 148° Southeast 251 289 7,300 -1,440 Descending Washington Center
06:52PM 36.1772 -78.7417 147° Southeast 230 265 6,500 -1,380 Descending Washington Center
06:52PM 36.1528 -78.7150 139° Southeast 236 272 5,900 -1,260 Descending Washington Center
06:53PM 36.1222 -78.6906 147° Southeast 228 262 5,200 -1,320 Descending Washington Center
06:54PM 36.0733 -78.6425 142° Southeast 220 253 3,900 -1,020 Descending Washington Center
06:55PM 36.0258 -78.6278 166° South 184 212 3,200 -540 Descending Washington Center
06:56PM 35.9914 -78.6622 219° Southwest 146 168 2,900 -300 Descending Washington Center